createdAt,value
2016-09-16T00:00:02.508Z,70.35
2016-09-16T00:01:02.532Z,70.83
2016-09-16T00:02:02.554Z,70.25
2016-09-16T00:03:02.583Z,70.92
2016-09-16T00:04:02.608Z,70.64
2016-09-16T00:05:02.633Z,70.64
2016-09-16T00:06:02.656Z,70.64
2016-09-16T00:07:02.684Z,70.15
2016-09-16T00:08:02.713Z,70.64
2016-09-16T00:09:02.733Z,70.54
2016-09-16T00:10:02.761Z,70.54
2016-09-16T00:11:02.783Z,70.73
2016-09-16T00:12:02.811Z,70.73
2016-09-16T00:13:02.837Z,70.35
2016-09-16T00:14:02.858Z,70.15
2016-09-16T00:15:02.883Z,70.73
2016-09-16T00:16:02.906Z,70.92
2016-09-16T00:17:02.936Z,70.5
2016-09-16T00:18:03.263Z,71.21
2016-09-16T00:19:02.988Z,71.31
2016-09-16T00:20:03.008Z,70.92
2016-09-16T00:21:03.034Z,70.98
2016-09-16T00:22:03.059Z,71.37
2016-09-16T00:23:03.085Z,71.66
2016-09-16T00:24:03.116Z,71.66
2016-09-16T00:25:03.138Z,71.75
2016-09-16T00:26:18.085Z,71.46
2016-09-16T00:27:03.189Z,71.08
2016-09-16T00:28:03.219Z,71.08
2016-09-16T00:29:03.236Z,70.89
2016-09-16T00:30:03.263Z,71.37
2016-09-16T00:31:03.285Z,71.37
2016-09-16T00:32:03.312Z,71.66
2016-09-16T00:33:03.344Z,71.17
2016-09-16T00:34:03.362Z,71.75
2016-09-16T00:35:03.387Z,71.46
2016-09-16T00:36:03.413Z,71.46
2016-09-16T00:37:03.443Z,71.66
2016-09-16T00:38:03.465Z,71.37
2016-09-16T00:39:03.488Z,71.84
2016-09-16T00:40:03.523Z,72.13
2016-09-16T00:41:03.536Z,71.84
2016-09-16T00:42:18.541Z,72.23
2016-09-16T00:43:03.589Z,72.03
2016-09-16T00:45:03.643Z,72.03
2016-09-16T00:46:03.666Z,72.23
2016-09-16T00:47:03.689Z,72.13
2016-09-16T00:48:03.712Z,72.03
2016-09-16T00:49:03.740Z,71.66
2016-09-16T00:50:03.818Z,71.94
2016-09-16T00:51:03.789Z,72.03
2016-09-16T00:52:03.813Z,72.23
2016-09-16T00:53:03.841Z,72.23
2016-09-16T00:54:03.866Z,72.23
2016-09-16T00:55:03.896Z,72.23
2016-09-16T00:56:03.921Z,72.99
2016-09-16T00:57:03.959Z,72.61
2016-09-16T00:58:18.897Z,72.71
2016-09-16T00:59:04.009Z,72.42
2016-09-16T01:00:04.021Z,73.19
2016-09-16T01:01:04.046Z,72.9
2016-09-16T01:04:04.128Z,73.24
2016-09-16T01:05:04.152Z,73.15
2016-09-16T01:06:04.184Z,73.15
2016-09-16T01:07:04.196Z,73.54
2016-09-16T01:08:04.230Z,73.72
2016-09-16T01:09:04.253Z,73.76
2016-09-16T01:10:04.268Z,73.82
2016-09-16T01:11:04.311Z,73.76
2016-09-16T01:12:04.329Z,73.24
2016-09-16T01:13:04.360Z,73.82
2016-09-16T01:14:19.292Z,73.91
2016-09-16T01:16:04.416Z,73.63
2016-09-16T01:17:04.460Z,73.91
2016-09-16T01:18:04.472Z,73.44
2016-09-16T01:19:04.505Z,73.44
2016-09-16T01:20:04.523Z,73.91
2016-09-16T01:21:04.555Z,74.49
2016-09-16T01:22:04.579Z,74.87
2016-09-16T01:23:04.609Z,74.58
2016-09-16T01:24:04.623Z,74.3
2016-09-16T01:25:04.649Z,74.49
2016-09-16T01:26:04.673Z,74.2
2016-09-16T01:27:04.692Z,74.58
2016-09-16T01:28:04.737Z,74.49
2016-09-16T01:29:19.668Z,74.68
2016-09-16T01:30:04.789Z,74.97
2016-09-16T01:32:04.819Z,74.49
2016-09-16T01:33:04.860Z,74.4
2016-09-16T01:34:04.881Z,74.77
2016-09-16T01:35:04.904Z,74.87
2016-09-16T01:36:04.937Z,74.68
2016-09-16T01:37:04.941Z,74.77
2016-09-16T01:38:05.030Z,75.07
2016-09-16T01:39:05.011Z,75.31
2016-09-16T01:40:05.018Z,75.93
2016-09-16T01:41:05.044Z,75.07
2016-09-16T01:42:05.076Z,75.64
2016-09-16T01:43:05.099Z,76.12
2016-09-16T01:44:05.123Z,76.21
2016-09-16T01:45:05.159Z,76.4
2016-09-16T01:46:05.185Z,75.07
2016-09-16T01:47:05.199Z,76.02
2016-09-16T01:48:05.221Z,75.07
2016-09-16T01:49:05.260Z,75.54
2016-09-16T01:51:05.305Z,75.51
2016-09-16T01:52:05.334Z,76.08
2016-09-16T01:53:05.348Z,76.37
2016-09-16T01:54:05.377Z,76.46
2016-09-16T01:55:05.410Z,76.37
2016-09-16T01:56:05.421Z,76.37
2016-09-16T01:57:05.447Z,75.41
2016-09-16T01:58:05.477Z,76.27
2016-09-16T01:59:05.503Z,76.27
2016-09-16T02:00:05.515Z,75.22
2016-09-16T02:01:20.466Z,75.79
2016-09-16T02:02:05.571Z,76.65
2016-09-16T02:03:05.610Z,75.79
2016-09-16T02:04:05.620Z,75.89
2016-09-16T02:05:05.646Z,76.46
2016-09-16T02:06:05.670Z,76.94
2016-09-16T02:07:05.697Z,76.46
2016-09-16T02:08:05.714Z,76.75
2016-09-16T02:09:05.750Z,77.42
2016-09-16T02:10:05.771Z,76.84
2016-09-16T02:11:05.806Z,76.94
2016-09-16T02:12:05.820Z,77.42
2016-09-16T02:13:05.837Z,77.42
2016-09-16T02:14:05.882Z,76.46
2016-09-16T02:15:05.893Z,76.37
2016-09-16T02:16:05.919Z,77.7
2016-09-16T02:17:20.869Z,77.61
2016-09-16T02:18:05.962Z,77.61
2016-09-16T02:19:05.993Z,77.51
2016-09-16T02:22:06.061Z,77.99
2016-09-16T02:23:06.091Z,77.61
2016-09-16T02:24:06.123Z,77.8
2016-09-16T02:25:06.136Z,77.13
2016-09-16T02:26:06.173Z,77.23
2016-09-16T02:27:06.185Z,77.13
2016-09-16T02:28:06.227Z,77.33
2016-09-16T02:29:06.235Z,77.86
2016-09-16T02:30:06.258Z,78.28
2016-09-16T02:31:06.296Z,77.99
2016-09-16T02:32:06.319Z,78.09
2016-09-16T02:33:21.265Z,77.9
2016-09-16T02:34:06.363Z,78.66
2016-09-16T02:35:06.389Z,77.99
2016-09-16T02:36:06.407Z,78.14
2016-09-16T02:37:06.439Z,78.63
2016-09-16T02:38:06.513Z,78.53
2016-09-16T02:39:06.501Z,78.63
2016-09-16T02:40:06.526Z,78.28
2016-09-16T02:41:06.538Z,78.43
2016-09-16T02:42:06.574Z,78.91
2016-09-16T02:43:06.579Z,79.29
2016-09-16T02:44:06.624Z,78.43
2016-09-16T02:45:06.647Z,78.63
2016-09-16T02:46:06.661Z,79.68
2016-09-16T02:47:06.684Z,79.2
2016-09-16T02:48:06.717Z,78.63
2016-09-16T02:49:21.654Z,79
2016-09-16T02:50:06.773Z,78.81
2016-09-16T02:51:06.853Z,79.2
2016-09-16T02:52:06.815Z,79.29
2016-09-16T02:53:06.827Z,78.81
2016-09-16T02:54:06.853Z,79
2016-09-16T02:55:06.889Z,78.72
2016-09-16T02:56:06.909Z,78.53
2016-09-16T02:57:07.088Z,79
2016-09-16T02:58:06.962Z,78.72
2016-09-16T02:59:06.980Z,78.43
2016-09-16T03:00:07.018Z,78.91
2016-09-16T03:01:07.331Z,78.91
2016-09-16T03:02:07.055Z,79.2
2016-09-16T03:03:07.089Z,79.49
2016-09-16T03:04:22.031Z,79.2
2016-09-16T03:05:07.132Z,79.29
2016-09-16T03:06:07.160Z,79.2
2016-09-16T03:07:07.180Z,79.29
2016-09-16T03:08:07.205Z,79.29
2016-09-16T03:09:07.230Z,79.39
2016-09-16T03:10:07.247Z,79.49
2016-09-16T03:11:07.278Z,79.58
2016-09-16T03:12:07.297Z,79.39
2016-09-16T03:13:07.331Z,79.39
2016-09-16T03:14:07.358Z,79.77
2016-09-16T03:15:07.388Z,79.77
2016-09-16T03:16:07.402Z,79.96
2016-09-16T03:17:07.439Z,80.16
2016-09-16T03:18:07.463Z,79.77
2016-09-16T03:19:07.469Z,79.87
2016-09-16T03:20:07.513Z,79.96
2016-09-16T03:21:07.536Z,80.35
2016-09-16T03:22:07.562Z,80.35
2016-09-16T03:23:07.569Z,80.06
2016-09-16T03:24:07.609Z,80.16
2016-09-16T03:25:07.617Z,79.96
2016-09-16T03:26:07.652Z,80.16
2016-09-16T03:27:07.685Z,79.96
2016-09-16T03:28:07.701Z,80.98
2016-09-16T03:29:07.728Z,80.79
2016-09-16T03:30:07.752Z,80.69
2016-09-16T03:31:07.771Z,80.79
2016-09-16T03:32:07.787Z,80.98
2016-09-16T03:33:07.812Z,80.98
2016-09-16T03:34:07.846Z,81.16
2016-09-16T03:35:07.873Z,80.79
2016-09-16T03:36:22.818Z,81.02
2016-09-16T03:37:07.925Z,80.59
2016-09-16T03:38:07.949Z,80.69
2016-09-16T03:40:08.324Z,80.88
2016-09-16T03:41:08.017Z,80.73
2016-09-16T03:42:08.057Z,80.3
2016-09-16T03:43:08.075Z,80.44
2016-09-16T03:44:08.089Z,80.82
2016-09-16T03:45:08.107Z,80.98
2016-09-16T03:46:08.151Z,81.36
2016-09-16T03:47:08.187Z,81.36
2016-09-16T03:48:08.193Z,80.88
2016-09-16T03:49:08.213Z,80.73
2016-09-16T03:50:08.249Z,80.92
2016-09-16T03:51:08.260Z,81.21
2016-09-16T03:52:23.205Z,81.07
2016-09-16T03:53:08.316Z,80.79
2016-09-16T03:54:08.347Z,80.79
2016-09-16T03:56:08.376Z,81.26
2016-09-16T03:57:08.416Z,81.36
2016-09-16T03:58:08.438Z,81.26
2016-09-16T03:59:08.474Z,81.36
2016-09-16T04:00:08.488Z,81.16
2016-09-16T04:01:08.500Z,81.26
2016-09-16T04:02:08.537Z,80.98
2016-09-16T04:03:08.552Z,81.16
2016-09-16T04:04:08.576Z,81.26
2016-09-16T04:05:08.603Z,81.36
2016-09-16T04:06:08.636Z,81.36
2016-09-16T04:07:08.661Z,81.26
2016-09-16T04:08:23.597Z,81.36
2016-09-16T04:09:08.701Z,80.79
2016-09-16T04:10:08.735Z,81.07
2016-09-16T04:11:08.747Z,81.45
2016-09-16T04:13:08.806Z,81.84
2016-09-16T04:14:08.829Z,81.55
2016-09-16T04:15:08.862Z,81.45
2016-09-16T04:16:08.885Z,81.16
2016-09-16T04:17:08.910Z,81.26
2016-09-16T04:18:08.918Z,81.16
2016-09-16T04:19:08.946Z,81.36
2016-09-16T04:20:09.265Z,81.55
2016-09-16T04:21:09.002Z,80.88
2016-09-16T04:22:09.025Z,81.26
2016-09-16T04:23:09.357Z,81.55
2016-09-16T04:24:23.994Z,81.36
2016-09-16T04:25:09.100Z,81.26
2016-09-16T04:26:09.117Z,81.16
2016-09-16T04:27:09.141Z,81.36
2016-09-16T04:30:09.221Z,81.26
2016-09-16T04:31:09.246Z,81.55
2016-09-16T04:32:09.266Z,81.65
2016-09-16T04:33:09.302Z,81.55
2016-09-16T04:34:09.325Z,82.03
2016-09-16T04:35:09.332Z,81.65
2016-09-16T04:36:09.360Z,81.45
2016-09-16T04:37:09.402Z,81.55
2016-09-16T04:38:09.416Z,81.36
2016-09-16T04:39:24.361Z,81.84
2016-09-16T04:41:09.497Z,81.45
2016-09-16T04:42:09.509Z,81.74
2016-09-16T04:43:09.548Z,81.45
2016-09-16T04:44:09.551Z,81.93
2016-09-16T04:45:09.582Z,81.55
2016-09-16T04:46:09.613Z,81.55
2016-09-16T04:47:09.637Z,82.03
2016-09-16T04:48:09.699Z,81.55
2016-09-16T04:49:09.695Z,81.55
2016-09-16T04:50:09.696Z,81.84
2016-09-16T04:51:09.722Z,81.93
2016-09-16T04:52:10.047Z,81.65
2016-09-16T04:53:09.770Z,81.55
2016-09-16T04:54:09.799Z,81.65
2016-09-16T04:55:09.870Z,81.65
2016-09-16T04:56:09.845Z,81.07
2016-09-16T04:57:09.866Z,81.84
2016-09-16T04:58:09.893Z,81.74
2016-09-16T05:00:09.941Z,81.55
2016-09-16T05:01:09.970Z,81.45
2016-09-16T05:02:09.992Z,81.36
2016-09-16T05:03:10.017Z,81.74
2016-09-16T05:04:10.044Z,81.36
2016-09-16T05:05:10.362Z,81.65
2016-09-16T05:06:10.089Z,81.84
2016-09-16T05:07:10.124Z,81.55
2016-09-16T05:09:10.173Z,81.59
2016-09-16T05:10:10.185Z,81.21
2016-09-16T05:11:25.142Z,81.45
2016-09-16T05:12:10.247Z,81.4
2016-09-16T05:13:10.268Z,80.73
2016-09-16T05:14:10.292Z,80.5
2016-09-16T05:16:10.333Z,81.02
2016-09-16T05:17:10.376Z,80.63
2016-09-16T05:18:10.381Z,80.44
2016-09-16T05:19:10.412Z,80.44
2016-09-16T05:20:10.450Z,79.68
2016-09-16T05:21:10.454Z,80.25
2016-09-16T05:22:10.490Z,80.16
2016-09-16T05:23:10.514Z,79.87
2016-09-16T05:24:10.548Z,79.87
2016-09-16T05:25:10.551Z,79.77
2016-09-16T05:26:10.586Z,79.29
2016-09-16T05:27:25.531Z,79.52
2016-09-16T05:28:10.640Z,79.1
2016-09-16T05:29:10.656Z,78.95
2016-09-16T05:30:10.677Z,78.66
2016-09-16T05:31:10.703Z,78.66
2016-09-16T05:32:10.731Z,78.95
2016-09-16T05:33:10.752Z,78.95
2016-09-16T05:34:10.786Z,78.66
2016-09-16T05:35:10.803Z,78.47
2016-09-16T05:36:10.835Z,77.9
2016-09-16T05:37:10.851Z,78.47
2016-09-16T05:38:10.882Z,77.8
2016-09-16T05:39:10.919Z,78.32
2016-09-16T05:40:10.930Z,77.84
2016-09-16T05:41:10.948Z,77.75
2016-09-16T05:42:10.975Z,77.42
2016-09-16T05:43:25.926Z,77.36
2016-09-16T05:45:11.055Z,77.65
2016-09-16T05:46:11.077Z,77.65
2016-09-16T05:48:11.424Z,77.46
2016-09-16T05:49:11.159Z,77.46
2016-09-16T05:50:12.224Z,76.69
2016-09-16T05:51:11.202Z,76.5
2016-09-16T05:52:11.223Z,76.79
2016-09-16T05:53:11.254Z,75.93
2016-09-16T05:54:11.272Z,76.6
2016-09-16T05:55:11.298Z,76.44
2016-09-16T05:56:11.322Z,74.52
2016-09-16T05:57:11.365Z,73.9
2016-09-16T05:58:11.377Z,73.41
2016-09-16T05:59:26.325Z,71.92
2016-09-16T06:00:11.428Z,71.47
2016-09-16T06:01:11.453Z,70.51
2016-09-16T06:02:11.482Z,70.03
2016-09-16T06:03:11.516Z,69.36
2016-09-16T06:04:11.535Z,69.11
2016-09-16T06:05:11.555Z,68.44
2016-09-16T06:06:11.585Z,68.34
2016-09-16T06:07:11.617Z,67.61
2016-09-16T06:08:11.645Z,67.51
2016-09-16T06:09:11.668Z,67.13
2016-09-16T06:10:11.699Z,66.16
2016-09-16T06:11:11.742Z,65.81
2016-09-16T06:12:11.751Z,66.55
2016-09-16T06:14:26.738Z,66.2
2016-09-16T06:15:11.840Z,65.81
2016-09-16T06:16:11.870Z,65.53
2016-09-16T06:17:12.218Z,64.95
2016-09-16T06:18:11.948Z,64.31
2016-09-16T06:19:11.965Z,63.83
2016-09-16T06:20:11.988Z,63.73
2016-09-16T06:21:12.017Z,63.57
2016-09-16T06:22:12.049Z,63.18
2016-09-16T06:23:12.079Z,62.8
2016-09-16T06:24:12.108Z,61.84
2016-09-16T06:25:12.144Z,61.97
2016-09-16T06:26:12.194Z,62.16
2016-09-16T06:27:12.218Z,61.19
2016-09-16T06:28:12.538Z,60.33
2016-09-16T06:29:12.263Z,60.33
2016-09-16T06:30:12.293Z,60.36
2016-09-16T06:32:12.360Z,61.49
2016-09-16T06:34:12.432Z,60.52
2016-09-16T06:35:12.458Z,60.42
2016-09-16T06:36:12.486Z,60.33
2016-09-16T06:37:12.527Z,60.17
2016-09-16T06:38:12.549Z,58.95
2016-09-16T06:39:12.594Z,58.85
2016-09-16T06:40:12.617Z,58.3
2016-09-16T06:41:12.654Z,58.49
2016-09-16T06:42:12.681Z,58.08
2016-09-16T06:43:12.709Z,58.65
2016-09-16T06:44:12.957Z,57.89
2016-09-16T06:45:12.783Z,57.79
2016-09-16T06:46:27.743Z,57.53
2016-09-16T06:47:12.845Z,57.53
2016-09-16T06:48:12.876Z,56.57
2016-09-16T06:49:12.914Z,56.37
2016-09-16T06:50:12.945Z,56.59
2016-09-16T06:51:12.988Z,56.3
2016-09-16T06:52:13.007Z,54.86
2016-09-16T06:53:13.041Z,55.56
2016-09-16T06:54:13.084Z,55.05
2016-09-16T06:55:13.112Z,55.44
2016-09-16T06:56:13.150Z,54.79
2016-09-16T06:57:13.184Z,55.24
2016-09-16T06:58:13.227Z,55.54
2016-09-16T07:00:13.295Z,54.96
2016-09-16T07:01:13.312Z,55.05
2016-09-16T07:02:28.270Z,55.15
2016-09-16T07:03:13.396Z,55.54
2016-09-16T07:04:13.409Z,55.15
2016-09-16T07:05:13.443Z,54.88
2016-09-16T07:06:13.477Z,54.4
2016-09-16T07:07:13.513Z,54.5
2016-09-16T07:08:13.555Z,54.5
2016-09-16T07:09:13.584Z,54.11
2016-09-16T07:10:13.616Z,53.73
2016-09-16T07:11:13.645Z,53.95
2016-09-16T07:12:13.685Z,53.47
2016-09-16T07:13:13.721Z,53.08
2016-09-16T07:15:13.807Z,52.14
2016-09-16T07:16:13.815Z,52.33
2016-09-16T07:17:13.851Z,52.26
2016-09-16T07:18:28.813Z,51.49
2016-09-16T07:19:13.917Z,50.84
2016-09-16T07:20:13.953Z,50.74
2016-09-16T07:21:13.994Z,50.16
2016-09-16T07:22:14.021Z,50.09
2016-09-16T07:23:14.068Z,50.38
2016-09-16T07:24:14.094Z,50.18
2016-09-16T07:25:14.131Z,49.32
2016-09-16T07:26:14.164Z,49.54
2016-09-16T07:27:14.204Z,48.95
2016-09-16T07:28:14.246Z,48.18
2016-09-16T07:29:14.266Z,48.27
2016-09-16T07:30:14.315Z,48.01
2016-09-16T07:31:14.348Z,49.15
2016-09-16T07:32:14.384Z,49.34
2016-09-16T07:33:14.403Z,49.05
2016-09-16T07:34:29.368Z,48.59
2016-09-16T07:35:14.469Z,48.79
2016-09-16T07:36:14.521Z,48.01
2016-09-16T07:37:14.559Z,47.62
2016-09-16T07:38:14.877Z,47.45
2016-09-16T07:39:14.607Z,47.45
2016-09-16T07:41:14.680Z,46.7
2016-09-16T07:42:14.712Z,47.55
2016-09-16T07:43:14.752Z,46.51
2016-09-16T07:44:14.781Z,46.53
2016-09-16T07:45:14.814Z,45.75
2016-09-16T07:46:14.850Z,45.39
2016-09-16T07:47:14.897Z,45.2
2016-09-16T07:48:14.940Z,45.48
2016-09-16T07:49:29.883Z,44.42
2016-09-16T07:50:14.989Z,45.39
2016-09-16T07:51:15.025Z,45.2
2016-09-16T07:52:15.070Z,45.21
2016-09-16T07:53:15.097Z,44.24
2016-09-16T07:54:15.127Z,43.88
2016-09-16T07:55:15.166Z,43.95
2016-09-16T07:56:15.201Z,43.57
2016-09-16T07:57:15.244Z,43.57
2016-09-16T07:58:15.266Z,43.86
2016-09-16T07:59:15.312Z,43.57
2016-09-16T08:00:15.331Z,43.76
2016-09-16T08:02:15.419Z,44.71
2016-09-16T08:03:15.443Z,44.32
2016-09-16T08:04:15.481Z,44.05
2016-09-16T08:05:15.505Z,43.57
2016-09-16T08:06:15.541Z,43.18
2016-09-16T08:07:15.575Z,43.86
2016-09-16T08:08:15.622Z,44.32
2016-09-16T08:09:15.647Z,44.13
2016-09-16T08:10:15.683Z,44.13
2016-09-16T08:11:15.711Z,43.74
2016-09-16T08:12:15.803Z,44.24
2016-09-16T08:13:15.783Z,44.24
2016-09-16T08:14:15.824Z,43.86
2016-09-16T08:15:15.848Z,43.88
2016-09-16T08:16:15.889Z,43.4
2016-09-16T08:17:15.929Z,42.33
2016-09-16T08:18:15.958Z,43.2
2016-09-16T08:19:15.990Z,43.49
2016-09-16T08:20:16.025Z,43.98
2016-09-16T08:21:30.988Z,42.05
2016-09-16T08:22:16.093Z,42.83
2016-09-16T08:23:16.127Z,42.15
2016-09-16T08:24:16.158Z,42.54
2016-09-16T08:25:16.208Z,42.64
2016-09-16T08:26:16.226Z,42.35
2016-09-16T08:27:16.266Z,41.59
2016-09-16T08:28:16.296Z,42.08
2016-09-16T08:29:16.330Z,42.44
2016-09-16T08:30:16.362Z,42.91
2016-09-16T08:31:16.407Z,43.3
2016-09-16T08:32:16.436Z,43.76
2016-09-16T08:33:16.477Z,43.4
2016-09-16T08:34:16.499Z,42.81
2016-09-16T08:35:16.544Z,43.02
2016-09-16T08:37:31.528Z,42.74
2016-09-16T08:38:16.655Z,42.64
2016-09-16T08:39:16.670Z,43.88
2016-09-16T08:40:16.716Z,44.05
2016-09-16T08:41:16.738Z,44.73
2016-09-16T08:42:16.777Z,45.48
2016-09-16T08:43:16.809Z,45.87
2016-09-16T08:44:16.846Z,44.32
2016-09-16T08:45:16.889Z,44.24
2016-09-16T08:46:16.908Z,44.34
2016-09-16T08:47:16.959Z,43.76
2016-09-16T08:48:16.979Z,43.78
2016-09-16T08:49:17.023Z,43.78
2016-09-16T08:51:17.081Z,43.9
2016-09-16T08:52:17.127Z,43.02
2016-09-16T08:53:32.080Z,42.46
2016-09-16T08:54:17.182Z,42.64
2016-09-16T08:55:17.234Z,43.22
2016-09-16T08:56:17.249Z,42.83
2016-09-16T08:57:17.295Z,44.02
2016-09-16T08:58:17.335Z,44.02
2016-09-16T08:59:17.357Z,43.44
2016-09-16T09:00:17.689Z,43.24
2016-09-16T09:01:17.417Z,42.87
2016-09-16T09:02:17.450Z,42.58
2016-09-16T09:03:17.486Z,42.8
2016-09-16T09:04:17.570Z,41.93
2016-09-16T09:05:17.557Z,41.14
2016-09-16T09:06:17.595Z,42.04
2016-09-16T09:07:17.627Z,41.75
2016-09-16T09:08:17.656Z,41.55
2016-09-16T09:09:32.618Z,42.14
2016-09-16T09:10:17.731Z,41.46
2016-09-16T09:11:17.763Z,41.75
2016-09-16T09:12:18.104Z,41.46
2016-09-16T09:13:17.831Z,41.16
2016-09-16T09:14:17.863Z,41.09
2016-09-16T09:15:17.946Z,40.68
2016-09-16T09:16:17.934Z,41.06
2016-09-16T09:17:17.964Z,41.75
2016-09-16T09:18:17.998Z,42.11
2016-09-16T09:19:18.031Z,42.02
2016-09-16T09:20:18.069Z,42.14
2016-09-16T09:21:18.109Z,42.04
2016-09-16T09:22:18.135Z,41.75
2016-09-16T09:23:18.173Z,41.65
2016-09-16T09:24:33.131Z,42.24
2016-09-16T09:25:18.241Z,41.77
2016-09-16T09:26:18.275Z,41.2
2016-09-16T09:27:18.310Z,40.91
2016-09-16T09:28:18.340Z,40.16
2016-09-16T09:29:18.380Z,40.42
2016-09-16T09:30:18.409Z,40.72
2016-09-16T09:31:18.447Z,40.8
2016-09-16T09:32:18.479Z,41.48
2016-09-16T09:33:18.508Z,41.55
2016-09-16T09:34:18.545Z,42.24
2016-09-16T09:35:18.577Z,41.65
2016-09-16T09:36:18.609Z,41.75
2016-09-16T09:37:18.658Z,42.14
2016-09-16T09:38:18.680Z,41.75
2016-09-16T09:39:18.717Z,42.24
2016-09-16T09:40:18.753Z,42.53
2016-09-16T09:41:18.785Z,42.9
2016-09-16T09:42:18.821Z,42.7
2016-09-16T09:43:18.859Z,42.6
2016-09-16T09:44:18.886Z,42.53
2016-09-16T09:45:18.925Z,42.72
2016-09-16T09:46:18.955Z,42.14
2016-09-16T09:47:18.986Z,42.63
2016-09-16T09:48:19.020Z,41.94
2016-09-16T09:49:19.058Z,42.43
2016-09-16T09:50:19.089Z,41.38
2016-09-16T09:51:19.132Z,42.08
2016-09-16T09:52:19.156Z,41.5
2016-09-16T09:53:19.193Z,41.89
2016-09-16T09:54:19.222Z,41.2
2016-09-16T09:55:19.254Z,40.17
2016-09-16T09:56:34.218Z,40.56
2016-09-16T09:57:19.324Z,40.64
2016-09-16T09:58:19.362Z,40.66
2016-09-16T09:59:19.704Z,40.56
2016-09-16T10:00:19.430Z,40.08
2016-09-16T10:01:19.459Z,40.17
2016-09-16T10:02:19.492Z,40.17
2016-09-16T10:03:19.530Z,40.27
2016-09-16T10:04:19.558Z,40.73
2016-09-16T10:05:19.593Z,41.4
2016-09-16T10:06:19.630Z,41.89
2016-09-16T10:07:19.662Z,42.47
2016-09-16T10:08:19.697Z,42.47
2016-09-16T10:09:19.734Z,42.28
2016-09-16T10:11:19.800Z,41.99
2016-09-16T10:12:34.756Z,42.38
2016-09-16T10:13:19.863Z,42.25
2016-09-16T10:14:19.900Z,43.6
2016-09-16T10:15:19.933Z,43.3
2016-09-16T10:16:19.963Z,43.79
2016-09-16T10:17:19.997Z,44.18
2016-09-16T10:19:20.065Z,44.45
2016-09-16T10:20:20.104Z,44.74
2016-09-16T10:21:20.133Z,45.4
2016-09-16T10:22:20.171Z,45.4
2016-09-16T10:23:20.209Z,45.32
2016-09-16T10:24:20.234Z,44.45
2016-09-16T10:25:20.265Z,44.45
2016-09-16T10:26:20.298Z,44.94
2016-09-16T10:27:20.334Z,45.32
2016-09-16T10:28:35.291Z,44.84
2016-09-16T10:29:20.401Z,44.96
2016-09-16T10:30:20.435Z,45.15
2016-09-16T10:31:20.468Z,44.28
2016-09-16T10:32:20.504Z,45.74
2016-09-16T10:33:20.529Z,45.52
2016-09-16T10:34:20.566Z,45.52
2016-09-16T10:35:20.601Z,46.11
2016-09-16T10:36:20.632Z,46.01
2016-09-16T10:37:20.663Z,46.3
2016-09-16T10:38:20.700Z,46.2
2016-09-16T10:39:20.727Z,45.32
2016-09-16T10:40:20.758Z,45.72
2016-09-16T10:41:20.798Z,45.72
2016-09-16T10:42:20.828Z,46.47
2016-09-16T10:43:20.861Z,47.25
2016-09-16T10:44:35.819Z,47.03
2016-09-16T10:45:20.928Z,47.34
2016-09-16T10:46:20.957Z,46.96
2016-09-16T10:47:20.987Z,46.77
2016-09-16T10:48:21.020Z,46.86
2016-09-16T10:49:21.054Z,46.88
2016-09-16T10:50:21.085Z,46.96
2016-09-16T10:51:21.122Z,46.86
2016-09-16T10:52:21.152Z,47.17
2016-09-16T10:53:21.186Z,46.86
2016-09-16T10:54:21.215Z,47.34
2016-09-16T10:55:21.246Z,46.77
2016-09-16T10:56:21.279Z,46.57
2016-09-16T10:58:21.344Z,47.15
2016-09-16T10:59:36.301Z,46.86
2016-09-16T11:00:21.404Z,46.57
2016-09-16T11:01:21.439Z,47.91
2016-09-16T11:02:21.471Z,48
2016-09-16T11:03:21.502Z,48.3
2016-09-16T11:04:21.837Z,47.93
2016-09-16T11:05:21.563Z,47.44
2016-09-16T11:06:21.595Z,47.66
2016-09-16T11:07:21.630Z,47.27
2016-09-16T11:08:21.660Z,46.88
2016-09-16T11:09:21.695Z,46.3
2016-09-16T11:10:21.726Z,46.03
2016-09-16T11:11:21.754Z,46.32
2016-09-16T11:12:21.784Z,46.42
2016-09-16T11:13:21.816Z,46.59
2016-09-16T11:15:21.882Z,47.25
2016-09-16T11:17:21.941Z,47.08
2016-09-16T11:18:21.980Z,46.69
2016-09-16T11:19:22.003Z,46.88
2016-09-16T11:20:22.036Z,46.78
2016-09-16T11:21:22.122Z,46.69
2016-09-16T11:22:22.103Z,46.78
2016-09-16T11:23:22.129Z,46.88
2016-09-16T11:24:22.162Z,47.17
2016-09-16T11:25:22.196Z,46.77
2016-09-16T11:26:22.229Z,47.34
2016-09-16T11:27:22.257Z,46.78
2016-09-16T11:28:22.287Z,47.66
2016-09-16T11:29:22.319Z,47.15
2016-09-16T11:30:22.350Z,47.64
2016-09-16T11:31:37.310Z,47.15
2016-09-16T11:32:22.414Z,47.17
2016-09-16T11:33:22.447Z,47.17
2016-09-16T11:34:22.478Z,46.23
2016-09-16T11:35:22.508Z,46.5
2016-09-16T11:36:22.543Z,46.5
2016-09-16T11:37:22.571Z,46.78
2016-09-16T11:38:22.600Z,46.3
2016-09-16T11:39:22.630Z,45.72
2016-09-16T11:40:22.663Z,46.5
2016-09-16T11:41:22.693Z,46.78
2016-09-16T11:42:22.730Z,46.88
2016-09-16T11:44:22.789Z,47.17
2016-09-16T11:45:22.818Z,46.88
2016-09-16T11:46:22.855Z,46.69
2016-09-16T11:47:37.813Z,47.56
2016-09-16T11:48:22.916Z,47.08
2016-09-16T11:49:22.945Z,47.17
2016-09-16T11:50:22.974Z,47.66
2016-09-16T11:51:23.005Z,47.64
2016-09-16T11:52:23.036Z,47.83
2016-09-16T11:53:23.073Z,47.83
2016-09-16T11:54:23.099Z,48.03
2016-09-16T11:55:23.130Z,47.74
2016-09-16T11:56:23.163Z,48.61
2016-09-16T11:57:23.197Z,47.64
2016-09-16T11:58:23.225Z,47.54
2016-09-16T11:59:23.252Z,47.54
2016-09-16T12:00:23.287Z,47.66
2016-09-16T12:01:23.319Z,47.37
2016-09-16T12:02:23.359Z,47.37
2016-09-16T12:03:38.303Z,47.86
2016-09-16T12:05:23.439Z,48.13
2016-09-16T12:06:23.473Z,47.83
2016-09-16T12:07:23.503Z,47.76
2016-09-16T12:08:23.536Z,47.83
2016-09-16T12:09:23.570Z,48.71
2016-09-16T12:10:23.601Z,48.8
2016-09-16T12:11:23.627Z,48.61
2016-09-16T12:12:23.660Z,48.41
2016-09-16T12:13:23.693Z,47.66
2016-09-16T12:14:23.721Z,47.47
2016-09-16T12:15:23.761Z,47.78
2016-09-16T12:16:23.783Z,47.78
2016-09-16T12:17:23.815Z,47.47
2016-09-16T12:18:23.847Z,47.1
2016-09-16T12:19:38.800Z,46.44
2016-09-16T12:20:23.906Z,46.15
2016-09-16T12:21:23.941Z,46.44
2016-09-16T12:22:23.969Z,45.86
2016-09-16T12:23:23.998Z,46.51
2016-09-16T12:24:24.033Z,46.81
2016-09-16T12:25:24.064Z,47.1
2016-09-16T12:26:24.092Z,46.42
2016-09-16T12:27:24.126Z,46.71
2016-09-16T12:28:24.154Z,46.51
2016-09-16T12:29:24.201Z,47
2016-09-16T12:30:24.219Z,46.81
2016-09-16T12:32:24.279Z,46.71
2016-09-16T12:33:24.310Z,46.91
2016-09-16T12:34:39.269Z,46.61
2016-09-16T12:35:24.375Z,46.61
2016-09-16T12:36:24.405Z,46.32
2016-09-16T12:37:24.437Z,46.42
2016-09-16T12:38:24.469Z,46.71
2016-09-16T12:39:24.504Z,46.61
2016-09-16T12:40:24.526Z,46.34
2016-09-16T12:41:24.560Z,47.13
2016-09-16T12:42:24.590Z,46.15
2016-09-16T12:43:24.620Z,46.08
2016-09-16T12:44:24.654Z,46.15
2016-09-16T12:45:24.683Z,46.08
2016-09-16T12:46:24.717Z,45.78
2016-09-16T12:47:24.746Z,45.86
2016-09-16T12:48:24.787Z,45.95
2016-09-16T12:49:24.809Z,45.39
2016-09-16T12:50:24.841Z,45.78
2016-09-16T12:51:24.869Z,45.68
2016-09-16T12:52:24.906Z,45.98
2016-09-16T12:53:24.935Z,45.98
2016-09-16T12:54:24.967Z,44.64
2016-09-16T12:55:24.996Z,44.83
2016-09-16T12:56:25.026Z,44.56
2016-09-16T12:57:25.060Z,44.54
2016-09-16T12:58:25.092Z,44.73
2016-09-16T12:59:25.124Z,44.37
2016-09-16T13:00:25.151Z,43.68
2016-09-16T13:01:25.186Z,43.88
2016-09-16T13:02:25.218Z,43.78
2016-09-16T13:03:25.249Z,43.98
2016-09-16T13:04:25.276Z,43.9
2016-09-16T13:05:25.309Z,43.9
2016-09-16T13:06:40.266Z,43.41
2016-09-16T13:07:25.375Z,43.41
2016-09-16T13:08:25.406Z,43.71
2016-09-16T13:09:25.434Z,43.39
2016-09-16T13:10:25.469Z,43.51
2016-09-16T13:11:25.501Z,43.8
2016-09-16T13:12:25.529Z,44.09
2016-09-16T13:13:25.562Z,44.07
2016-09-16T13:14:25.594Z,43.39
2016-09-16T13:15:25.628Z,43.39
2016-09-16T13:16:25.656Z,43.98
2016-09-16T13:17:25.744Z,44.07
2016-09-16T13:18:25.717Z,44.07
2016-09-16T13:19:25.751Z,44.34
2016-09-16T13:21:25.813Z,44.27
2016-09-16T13:22:40.772Z,44.56
2016-09-16T13:24:25.911Z,44.15
2016-09-16T13:25:25.940Z,44.34
2016-09-16T13:26:25.972Z,43.95
2016-09-16T13:27:26.003Z,43.84
2016-09-16T13:28:26.034Z,44.03
2016-09-16T13:29:26.067Z,44.05
2016-09-16T13:30:26.095Z,43.78
2016-09-16T13:31:26.127Z,43.49
2016-09-16T13:32:26.158Z,43.88
2016-09-16T13:33:26.189Z,43.68